sensor_id;sensor_type;location;lat;lon;timestamp;temperature;humidity
55173;DHT22;41061;52.822;6.860;2023-03-01T08:26:20;0.80;99.90
55173;DHT22;41061;52.822;6.860;2023-03-01T08:28:47;0.90;99.90
55173;DHT22;41061;52.822;6.860;2023-03-01T08:31:19;1.00;99.90
55173;DHT22;41061;52.822;6.860;2023-03-01T08:33:46;1.10;99.90
55173;DHT22;41061;52.822;6.860;2023-03-01T08:36:16;1.20;99.90
55173;DHT22;41061;52.822;6.860;2023-03-01T08:38:42;1.30;99.90
55173;DHT22;41061;52.822;6.860;2023-03-01T08:41:08;1.50;99.90
55173;DHT22;41061;52.822;6.860;2023-03-01T08:43:33;1.60;99.90
55173;DHT22;41061;52.822;6.860;2023-03-01T08:45:59;1.70;99.90
55173;DHT22;41061;52.822;6.860;2023-03-01T08:48:27;1.90;99.90
55173;DHT22;41061;52.822;6.860;2023-03-01T08:50:53;1.90;99.90
55173;DHT22;41061;52.822;6.860;2023-03-01T08:53:19;2.00;99.90
55173;DHT22;41061;52.822;6.860;2023-03-01T08:55:45;2.10;99.90
55173;DHT22;41061;52.822;6.860;2023-03-01T08:58:11;2.30;99.90
55173;DHT22;41061;52.822;6.860;2023-03-01T09:00:36;2.40;99.90
55173;DHT22;41061;52.822;6.860;2023-03-01T09:03:02;2.50;99.90
55173;DHT22;41061;52.822;6.860;2023-03-01T09:05:28;2.60;99.90
55173;DHT22;41061;52.822;6.860;2023-03-01T09:07:57;2.80;99.90
55173;DHT22;41061;52.822;6.860;2023-03-01T09:10:23;2.90;99.90
55173;DHT22;41061;52.822;6.860;2023-03-01T09:12:48;3.00;99.90
55173;DHT22;41061;52.822;6.860;2023-03-01T09:15:14;3.10;99.90
55173;DHT22;41061;52.822;6.860;2023-03-01T09:17:40;3.20;99.90
55173;DHT22;41061;52.822;6.860;2023-03-01T09:20:06;3.30;99.90
55173;DHT22;41061;52.822;6.860;2023-03-01T09:22:33;3.40;99.90
55173;DHT22;41061;52.822;6.860;2023-03-01T09:25:00;3.50;99.90
55173;DHT22;41061;52.822;6.860;2023-03-01T09:27:26;3.70;99.90
55173;DHT22;41061;52.822;6.860;2023-03-01T09:29:51;3.70;99.90
55173;DHT22;41061;52.822;6.860;2023-03-01T09:32:17;3.80;99.90
55173;DHT22;41061;52.822;6.860;2023-03-01T09:34:42;3.90;99.90
55173;DHT22;41061;52.822;6.860;2023-03-01T09:37:29;4.10;99.90
55173;DHT22;41061;52.822;6.860;2023-03-01T09:39:54;4.20;99.90
55173;DHT22;41061;52.822;6.860;2023-03-01T09:42:20;4.30;99.90
55173;DHT22;41061;52.822;6.860;2023-03-01T09:45:05;4.40;99.90
55173;DHT22;41061;52.822;6.860;2023-03-01T09:47:34;4.60;99.90
55173;DHT22;41061;52.822;6.860;2023-03-01T09:50:19;4.70;99.90
55173;DHT22;41061;52.822;6.860;2023-03-01T09:53:13;4.80;99.90
55173;DHT22;41061;52.822;6.860;2023-03-01T09:55:53;4.90;99.90
55173;DHT22;41061;52.822;6.860;2023-03-01T10:00:48;5.20;99.90
55173;DHT22;41061;52.822;6.860;2023-03-01T10:03:25;5.30;99.90
55173;DHT22;41061;52.822;6.860;2023-03-01T10:08:56;5.40;99.90
55173;DHT22;41061;52.822;6.860;2023-03-01T10:11:31;5.40;99.90
55173;DHT22;41061;52.822;6.860;2023-03-01T10:14:03;5.40;99.90
55173;DHT22;41061;52.822;6.860;2023-03-01T10:19:05;5.50;99.90
55173;DHT22;41061;52.822;6.860;2023-03-01T10:21:43;5.50;99.90
55173;DHT22;41061;52.822;6.860;2023-03-01T10:24:18;5.50;99.90
55173;DHT22;41061;52.822;6.860;2023-03-01T10:29:14;5.60;99.90
55173;DHT22;41061;52.822;6.860;2023-03-01T10:36:39;5.60;99.90
55173;DHT22;41061;52.822;6.860;2023-03-01T10:39:14;5.70;99.90
55173;DHT22;41061;52.822;6.860;2023-03-01T10:44:47;5.80;99.90
55173;DHT22;41061;52.822;6.860;2023-03-01T10:47:27;5.70;99.90
55173;DHT22;41061;52.822;6.860;2023-03-01T10:50:05;5.70;99.90
55173;DHT22;41061;52.822;6.860;2023-03-01T10:52:36;5.90;99.90
55173;DHT22;41061;52.822;6.860;2023-03-01T10:55:24;6.10;99.90
55173;DHT22;41061;52.822;6.860;2023-03-01T10:58:07;6.20;99.90
55173;DHT22;41061;52.822;6.860;2023-03-01T11:00:33;6.20;99.90
55173;DHT22;41061;52.822;6.860;2023-03-01T11:03:14;6.10;99.90
55173;DHT22;41061;52.822;6.860;2023-03-01T12:48:41;8.10;99.90
55173;DHT22;41061;52.822;6.860;2023-03-01T12:51:17;8.10;99.90
55173;DHT22;41061;52.822;6.860;2023-03-01T12:53:49;8.20;99.90
55173;DHT22;41061;52.822;6.860;2023-03-01T12:56:22;8.10;99.90
55173;DHT22;41061;52.822;6.860;2023-03-01T13:01:36;8.20;99.90
55173;DHT22;41061;52.822;6.860;2023-03-01T13:17:53;8.40;99.90
55173;DHT22;41061;52.822;6.860;2023-03-01T13:20:21;8.60;99.90
55173;DHT22;41061;52.822;6.860;2023-03-01T13:23:01;8.60;99.90
55173;DHT22;41061;52.822;6.860;2023-03-01T13:25:27;8.60;99.90
55173;DHT22;41061;52.822;6.860;2023-03-01T13:30:57;8.60;99.90
55173;DHT22;41061;52.822;6.860;2023-03-01T13:35:53;8.80;99.90
55173;DHT22;41061;52.822;6.860;2023-03-01T13:38:45;8.70;98.00
55173;DHT22;41061;52.822;6.860;2023-03-01T13:41:12;8.50;98.40
55173;DHT22;41061;52.822;6.860;2023-03-01T13:43:41;8.50;99.10
55173;DHT22;41061;52.822;6.860;2023-03-01T13:48:43;8.70;99.90
55173;DHT22;41061;52.822;6.860;2023-03-01T13:51:11;8.90;99.90
55173;DHT22;41061;52.822;6.860;2023-03-01T13:53:43;9.00;99.90
55173;DHT22;41061;52.822;6.860;2023-03-01T13:56:15;9.00;99.90
55173;DHT22;41061;52.822;6.860;2023-03-01T13:58:58;8.90;99.90
55173;DHT22;41061;52.822;6.860;2023-03-01T14:01:30;8.80;99.90
55173;DHT22;41061;52.822;6.860;2023-03-01T14:03:56;8.70;99.90
55173;DHT22;41061;52.822;6.860;2023-03-01T14:06:25;8.70;99.90
55173;DHT22;41061;52.822;6.860;2023-03-01T14:12:02;8.80;99.90
55173;DHT22;41061;52.822;6.860;2023-03-01T14:14:45;8.70;99.90
55173;DHT22;41061;52.822;6.860;2023-03-01T14:19:58;8.50;99.90
55173;DHT22;41061;52.822;6.860;2023-03-01T14:22:29;8.50;99.90
55173;DHT22;41061;52.822;6.860;2023-03-01T14:25:23;8.50;99.90
55173;DHT22;41061;52.822;6.860;2023-03-01T14:28:13;8.40;99.90
55173;DHT22;41061;52.822;6.860;2023-03-01T14:30:50;8.30;99.90
55173;DHT22;41061;52.822;6.860;2023-03-01T14:33:29;8.10;99.90
55173;DHT22;41061;52.822;6.860;2023-03-01T14:35:59;8.00;99.90
55173;DHT22;41061;52.822;6.860;2023-03-01T14:38:37;8.00;99.90
55173;DHT22;41061;52.822;6.860;2023-03-01T14:41:11;8.00;99.90
55173;DHT22;41061;52.822;6.860;2023-03-01T14:43:47;7.90;99.90
55173;DHT22;41061;52.822;6.860;2023-03-01T14:46:39;7.90;99.90
55173;DHT22;41061;52.822;6.860;2023-03-01T14:49:17;7.80;99.90
55173;DHT22;41061;52.822;6.860;2023-03-01T14:51:57;7.90;99.90
55173;DHT22;41061;52.822;6.860;2023-03-01T14:54:38;8.00;99.90
55173;DHT22;41061;52.822;6.860;2023-03-01T14:57:05;7.90;99.90
55173;DHT22;41061;52.822;6.860;2023-03-01T14:59:33;7.80;99.90
55173;DHT22;41061;52.822;6.860;2023-03-01T15:01:59;7.70;99.90
55173;DHT22;41061;52.822;6.860;2023-03-01T15:04:26;7.70;99.90
55173;DHT22;41061;52.822;6.860;2023-03-01T15:06:54;7.70;99.90
55173;DHT22;41061;52.822;6.860;2023-03-01T15:09:21;7.60;99.90
55173;DHT22;41061;52.822;6.860;2023-03-01T15:11:49;7.60;99.90
55173;DHT22;41061;52.822;6.860;2023-03-01T15:14:43;7.60;99.90
55173;DHT22;41061;52.822;6.860;2023-03-01T15:19:53;7.60;99.90
55173;DHT22;41061;52.822;6.860;2023-03-01T15:22:20;7.60;99.90
55173;DHT22;41061;52.822;6.860;2023-03-01T15:24:50;7.60;99.90
55173;DHT22;41061;52.822;6.860;2023-03-01T15:27:21;7.50;99.90
55173;DHT22;41061;52.822;6.860;2023-03-01T15:29:56;7.50;99.90
55173;DHT22;41061;52.822;6.860;2023-03-01T15:32:30;7.50;99.90
55173;DHT22;41061;52.822;6.860;2023-03-01T15:35:01;7.50;99.90
55173;DHT22;41061;52.822;6.860;2023-03-01T15:37:47;7.40;99.90
55173;DHT22;41061;52.822;6.860;2023-03-01T15:40:29;7.40;99.90
55173;DHT22;41061;52.822;6.860;2023-03-01T15:42:58;7.30;99.90
55173;DHT22;41061;52.822;6.860;2023-03-01T15:45:27;7.30;99.90
55173;DHT22;41061;52.822;6.860;2023-03-01T15:47:58;7.30;99.90
55173;DHT22;41061;52.822;6.860;2023-03-01T15:50:34;7.30;99.90
55173;DHT22;41061;52.822;6.860;2023-03-01T15:53:05;7.30;99.90
55173;DHT22;41061;52.822;6.860;2023-03-01T15:55:32;7.30;99.90
55173;DHT22;41061;52.822;6.860;2023-03-01T15:58:22;7.30;99.90
55173;DHT22;41061;52.822;6.860;2023-03-01T16:00:49;7.30;99.90
55173;DHT22;41061;52.822;6.860;2023-03-01T16:03:21;7.20;99.90
55173;DHT22;41061;52.822;6.860;2023-03-01T16:05:49;7.20;99.90
55173;DHT22;41061;52.822;6.860;2023-03-01T16:08:16;7.20;99.90
55173;DHT22;41061;52.822;6.860;2023-03-01T16:10:42;7.20;99.90
55173;DHT22;41061;52.822;6.860;2023-03-01T16:13:11;7.20;99.90
55173;DHT22;41061;52.822;6.860;2023-03-01T16:15:37;7.20;99.90
55173;DHT22;41061;52.822;6.860;2023-03-01T16:18:05;7.10;99.90
55173;DHT22;41061;52.822;6.860;2023-03-01T16:20:32;7.10;99.90
55173;DHT22;41061;52.822;6.860;2023-03-01T16:23:00;7.10;99.90
55173;DHT22;41061;52.822;6.860;2023-03-01T16:25:26;7.00;99.90
55173;DHT22;41061;52.822;6.860;2023-03-01T16:27:52;7.00;99.90
55173;DHT22;41061;52.822;6.860;2023-03-01T16:30:21;6.90;99.90
55173;DHT22;41061;52.822;6.860;2023-03-01T16:32:48;6.90;99.90
55173;DHT22;41061;52.822;6.860;2023-03-01T16:35:16;6.90;99.90
55173;DHT22;41061;52.822;6.860;2023-03-01T16:37:42;6.80;99.90
55173;DHT22;41061;52.822;6.860;2023-03-01T16:40:21;6.60;99.90
55173;DHT22;41061;52.822;6.860;2023-03-01T16:42:49;6.50;99.90
55173;DHT22;41061;52.822;6.860;2023-03-01T16:45:15;6.40;99.90
55173;DHT22;41061;52.822;6.860;2023-03-01T16:47:41;6.30;99.90
55173;DHT22;41061;52.822;6.860;2023-03-01T16:50:07;6.20;99.90
55173;DHT22;41061;52.822;6.860;2023-03-01T17:19:37;5.40;99.90
55173;DHT22;41061;52.822;6.860;2023-03-01T17:22:10;5.40;99.90
55173;DHT22;41061;52.822;6.860;2023-03-01T17:24:37;5.30;99.90
55173;DHT22;41061;52.822;6.860;2023-03-01T17:27:04;5.30;99.90
55173;DHT22;41061;52.822;6.860;2023-03-01T17:29:30;5.20;99.90
55173;DHT22;41061;52.822;6.860;2023-03-01T17:31:56;5.20;99.90
55173;DHT22;41061;52.822;6.860;2023-03-01T17:34:23;5.00;99.90
55173;DHT22;41061;52.822;6.860;2023-03-01T17:36:49;5.00;99.90
55173;DHT22;41061;52.822;6.860;2023-03-01T17:39:17;4.90;99.90
55173;DHT22;41061;52.822;6.860;2023-03-01T17:41:45;4.90;99.90
55173;DHT22;41061;52.822;6.860;2023-03-01T17:44:10;4.90;99.90
55173;DHT22;41061;52.822;6.860;2023-03-01T17:46:36;4.90;99.90
55173;DHT22;41061;52.822;6.860;2023-03-01T17:49:02;4.90;99.90
55173;DHT22;41061;52.822;6.860;2023-03-01T17:51:28;4.90;99.90
55173;DHT22;41061;52.822;6.860;2023-03-01T17:53:54;4.80;99.90
55173;DHT22;41061;52.822;6.860;2023-03-01T17:56:20;4.80;99.90
55173;DHT22;41061;52.822;6.860;2023-03-01T17:58:45;4.70;99.90
55173;DHT22;41061;52.822;6.860;2023-03-01T18:01:14;4.60;99.90
55173;DHT22;41061;52.822;6.860;2023-03-01T18:03:40;4.50;99.90
55173;DHT22;41061;52.822;6.860;2023-03-01T18:06:17;4.40;99.90
55173;DHT22;41061;52.822;6.860;2023-03-01T18:08:44;4.40;99.90
55173;DHT22;41061;52.822;6.860;2023-03-01T18:11:14;4.30;99.90
55173;DHT22;41061;52.822;6.860;2023-03-01T18:13:40;4.30;99.90
55173;DHT22;41061;52.822;6.860;2023-03-01T18:16:07;4.20;99.90
55173;DHT22;41061;52.822;6.860;2023-03-01T18:18:34;4.20;99.90
55173;DHT22;41061;52.822;6.860;2023-03-01T18:21:00;4.20;99.90
55173;DHT22;41061;52.822;6.860;2023-03-01T18:23:27;4.20;99.90
55173;DHT22;41061;52.822;6.860;2023-03-01T18:26:07;4.10;99.90
55173;DHT22;41061;52.822;6.860;2023-03-01T18:28:34;4.00;99.90
55173;DHT22;41061;52.822;6.860;2023-03-01T18:31:02;3.90;99.90
55173;DHT22;41061;52.822;6.860;2023-03-01T18:33:31;3.90;99.90
55173;DHT22;41061;52.822;6.860;2023-03-01T18:35:57;3.80;99.90
55173;DHT22;41061;52.822;6.860;2023-03-01T18:38:23;3.80;99.90
55173;DHT22;41061;52.822;6.860;2023-03-01T18:40:52;3.80;99.90
55173;DHT22;41061;52.822;6.860;2023-03-01T18:43:19;3.80;99.90
55173;DHT22;41061;52.822;6.860;2023-03-01T18:45:45;3.70;99.90
55173;DHT22;41061;52.822;6.860;2023-03-01T18:48:11;3.70;99.90
55173;DHT22;41061;52.822;6.860;2023-03-01T18:50:38;3.70;99.90
55173;DHT22;41061;52.822;6.860;2023-03-01T18:53:05;3.70;99.90
55173;DHT22;41061;52.822;6.860;2023-03-01T18:55:30;3.60;99.90
55173;DHT22;41061;52.822;6.860;2023-03-01T18:57:59;3.50;99.90
55173;DHT22;41061;52.822;6.860;2023-03-01T19:00:25;3.50;99.90
55173;DHT22;41061;52.822;6.860;2023-03-01T19:02:51;3.50;99.90
55173;DHT22;41061;52.822;6.860;2023-03-01T19:05:16;3.60;99.90
55173;DHT22;41061;52.822;6.860;2023-03-01T19:07:42;3.70;99.90
55173;DHT22;41061;52.822;6.860;2023-03-01T19:10:08;3.70;99.90
55173;DHT22;41061;52.822;6.860;2023-03-01T19:12:34;3.60;99.90
55173;DHT22;41061;52.822;6.860;2023-03-01T19:15:00;3.50;99.90
55173;DHT22;41061;52.822;6.860;2023-03-01T19:17:26;3.50;99.90
55173;DHT22;41061;52.822;6.860;2023-03-01T19:19:58;3.50;99.90
55173;DHT22;41061;52.822;6.860;2023-03-01T19:22:25;3.50;99.90
55173;DHT22;41061;52.822;6.860;2023-03-01T19:24:51;3.50;99.90
55173;DHT22;41061;52.822;6.860;2023-03-01T19:27:17;3.50;99.90
55173;DHT22;41061;52.822;6.860;2023-03-01T19:29:43;3.50;99.90
55173;DHT22;41061;52.822;6.860;2023-03-01T19:32:08;3.40;99.90
55173;DHT22;41061;52.822;6.860;2023-03-01T19:34:34;3.40;99.90
55173;DHT22;41061;52.822;6.860;2023-03-01T19:37:01;3.30;99.90
55173;DHT22;41061;52.822;6.860;2023-03-01T19:39:27;3.20;99.90
55173;DHT22;41061;52.822;6.860;2023-03-01T19:41:53;3.20;99.90
55173;DHT22;41061;52.822;6.860;2023-03-01T19:44:18;3.00;99.90
55173;DHT22;41061;52.822;6.860;2023-03-01T19:46:54;3.00;99.90
55173;DHT22;41061;52.822;6.860;2023-03-01T19:49:21;3.00;99.90
55173;DHT22;41061;52.822;6.860;2023-03-01T19:51:48;2.90;99.90
55173;DHT22;41061;52.822;6.860;2023-03-01T19:54:13;2.80;99.90
55173;DHT22;41061;52.822;6.860;2023-03-01T19:56:45;3.00;99.90
55173;DHT22;41061;52.822;6.860;2023-03-01T19:59:11;2.90;99.90
55173;DHT22;41061;52.822;6.860;2023-03-01T20:01:37;2.90;99.90
55173;DHT22;41061;52.822;6.860;2023-03-01T20:04:07;2.90;99.90
55173;DHT22;41061;52.822;6.860;2023-03-01T20:06:34;2.90;99.90
55173;DHT22;41061;52.822;6.860;2023-03-01T20:09:05;2.80;99.90
55173;DHT22;41061;52.822;6.860;2023-03-01T20:11:31;2.80;99.90
55173;DHT22;41061;52.822;6.860;2023-03-01T20:13:57;2.70;99.90
55173;DHT22;41061;52.822;6.860;2023-03-01T20:16:23;2.70;99.90
55173;DHT22;41061;52.822;6.860;2023-03-01T20:18:51;2.70;99.90
55173;DHT22;41061;52.822;6.860;2023-03-01T20:21:18;2.70;99.90
55173;DHT22;41061;52.822;6.860;2023-03-01T20:23:46;2.60;99.90
55173;DHT22;41061;52.822;6.860;2023-03-01T20:26:12;2.60;99.90
55173;DHT22;41061;52.822;6.860;2023-03-01T20:28:41;2.70;99.90
55173;DHT22;41061;52.822;6.860;2023-03-01T20:31:09;2.70;99.90
55173;DHT22;41061;52.822;6.860;2023-03-01T20:33:36;2.70;99.90
55173;DHT22;41061;52.822;6.860;2023-03-01T20:36:03;2.80;99.90
55173;DHT22;41061;52.822;6.860;2023-03-01T20:38:29;2.80;99.90
55173;DHT22;41061;52.822;6.860;2023-03-01T20:40:59;2.80;99.90
55173;DHT22;41061;52.822;6.860;2023-03-01T20:43:25;2.90;99.90
55173;DHT22;41061;52.822;6.860;2023-03-01T20:45:51;2.90;99.90
55173;DHT22;41061;52.822;6.860;2023-03-01T20:48:17;3.00;99.90
55173;DHT22;41061;52.822;6.860;2023-03-01T20:50:42;3.00;99.90
55173;DHT22;41061;52.822;6.860;2023-03-01T20:53:08;3.10;99.90
55173;DHT22;41061;52.822;6.860;2023-03-01T20:55:34;3.10;99.90
55173;DHT22;41061;52.822;6.860;2023-03-01T20:57:59;3.20;99.90
55173;DHT22;41061;52.822;6.860;2023-03-01T21:00:25;3.30;99.90
55173;DHT22;41061;52.822;6.860;2023-03-01T21:02:50;3.20;99.90
55173;DHT22;41061;52.822;6.860;2023-03-01T21:05:16;3.30;99.90
55173;DHT22;41061;52.822;6.860;2023-03-01T21:07:42;3.30;99.90
55173;DHT22;41061;52.822;6.860;2023-03-01T21:10:08;3.30;99.90
55173;DHT22;41061;52.822;6.860;2023-03-01T21:12:34;3.30;99.90
55173;DHT22;41061;52.822;6.860;2023-03-01T21:15:00;3.40;99.90
55173;DHT22;41061;52.822;6.860;2023-03-01T21:17:25;3.50;99.90
55173;DHT22;41061;52.822;6.860;2023-03-01T21:19:51;3.50;99.90
55173;DHT22;41061;52.822;6.860;2023-03-01T21:22:17;3.50;99.90
55173;DHT22;41061;52.822;6.860;2023-03-01T21:24:43;3.50;99.90
55173;DHT22;41061;52.822;6.860;2023-03-01T21:27:09;3.50;99.90
55173;DHT22;41061;52.822;6.860;2023-03-01T21:29:40;3.50;99.90
55173;DHT22;41061;52.822;6.860;2023-03-01T21:32:06;3.50;99.90
55173;DHT22;41061;52.822;6.860;2023-03-01T21:34:33;3.50;99.90
55173;DHT22;41061;52.822;6.860;2023-03-01T21:36:59;3.50;99.90
55173;DHT22;41061;52.822;6.860;2023-03-01T21:39:26;3.50;99.90
55173;DHT22;41061;52.822;6.860;2023-03-01T21:41:54;3.50;99.90
55173;DHT22;41061;52.822;6.860;2023-03-01T21:44:22;3.50;99.90
55173;DHT22;41061;52.822;6.860;2023-03-01T21:46:48;3.50;99.90
55173;DHT22;41061;52.822;6.860;2023-03-01T21:49:14;3.50;99.90
55173;DHT22;41061;52.822;6.860;2023-03-01T21:51:40;3.50;99.90
55173;DHT22;41061;52.822;6.860;2023-03-01T21:54:06;3.50;99.90
55173;DHT22;41061;52.822;6.860;2023-03-01T21:56:33;3.50;99.90
55173;DHT22;41061;52.822;6.860;2023-03-01T21:59:03;3.50;99.90
55173;DHT22;41061;52.822;6.860;2023-03-01T22:01:30;3.50;99.90
55173;DHT22;41061;52.822;6.860;2023-03-01T22:03:57;3.50;99.90
55173;DHT22;41061;52.822;6.860;2023-03-01T22:06:26;3.50;99.90
55173;DHT22;41061;52.822;6.860;2023-03-01T22:08:59;3.40;99.90
55173;DHT22;41061;52.822;6.860;2023-03-01T22:11:26;3.40;99.90
55173;DHT22;41061;52.822;6.860;2023-03-01T22:13:54;3.50;99.90
55173;DHT22;41061;52.822;6.860;2023-03-01T22:16:28;3.50;99.90
55173;DHT22;41061;52.822;6.860;2023-03-01T22:18:55;3.50;99.90
55173;DHT22;41061;52.822;6.860;2023-03-01T22:21:21;3.50;99.90
55173;DHT22;41061;52.822;6.860;2023-03-01T22:23:50;3.50;99.90
55173;DHT22;41061;52.822;6.860;2023-03-01T22:26:31;3.50;99.90
55173;DHT22;41061;52.822;6.860;2023-03-01T22:29:00;3.50;99.90
55173;DHT22;41061;52.822;6.860;2023-03-01T22:31:26;3.40;99.90
55173;DHT22;41061;52.822;6.860;2023-03-01T22:33:53;3.40;99.90
55173;DHT22;41061;52.822;6.860;2023-03-01T22:36:20;3.40;99.90
55173;DHT22;41061;52.822;6.860;2023-03-01T22:38:46;3.40;99.90
55173;DHT22;41061;52.822;6.860;2023-03-01T22:41:12;3.30;99.90
55173;DHT22;41061;52.822;6.860;2023-03-01T22:43:38;3.30;99.90
55173;DHT22;41061;52.822;6.860;2023-03-01T22:46:15;3.20;99.90
55173;DHT22;41061;52.822;6.860;2023-03-01T22:48:42;3.20;99.90
55173;DHT22;41061;52.822;6.860;2023-03-01T22:51:13;3.20;99.90
55173;DHT22;41061;52.822;6.860;2023-03-01T22:53:39;3.20;99.90
55173;DHT22;41061;52.822;6.860;2023-03-01T22:56:16;3.10;99.90
55173;DHT22;41061;52.822;6.860;2023-03-01T22:58:43;3.10;99.90
55173;DHT22;41061;52.822;6.860;2023-03-01T23:01:15;3.10;99.90
55173;DHT22;41061;52.822;6.860;2023-03-01T23:03:42;3.10;99.90
55173;DHT22;41061;52.822;6.860;2023-03-01T23:06:08;3.00;99.90
55173;DHT22;41061;52.822;6.860;2023-03-01T23:08:35;3.00;99.90
55173;DHT22;41061;52.822;6.860;2023-03-01T23:11:01;3.10;99.90
55173;DHT22;41061;52.822;6.860;2023-03-01T23:13:27;3.10;99.90
55173;DHT22;41061;52.822;6.860;2023-03-01T23:15:56;3.10;99.90
55173;DHT22;41061;52.822;6.860;2023-03-01T23:18:22;3.10;99.90
55173;DHT22;41061;52.822;6.860;2023-03-01T23:20:48;3.10;99.90
55173;DHT22;41061;52.822;6.860;2023-03-01T23:23:14;3.00;99.90
55173;DHT22;41061;52.822;6.860;2023-03-01T23:25:40;3.00;99.90
55173;DHT22;41061;52.822;6.860;2023-03-01T23:28:06;3.10;99.90
55173;DHT22;41061;52.822;6.860;2023-03-01T23:30:32;3.00;99.90
55173;DHT22;41061;52.822;6.860;2023-03-01T23:32:58;3.00;99.90
55173;DHT22;41061;52.822;6.860;2023-03-01T23:35:25;3.00;99.90
55173;DHT22;41061;52.822;6.860;2023-03-01T23:37:51;3.10;99.90
55173;DHT22;41061;52.822;6.860;2023-03-01T23:40:17;3.00;99.90
55173;DHT22;41061;52.822;6.860;2023-03-01T23:42:45;3.00;99.90
55173;DHT22;41061;52.822;6.860;2023-03-01T23:45:11;3.00;99.90
55173;DHT22;41061;52.822;6.860;2023-03-01T23:47:37;3.00;99.90
55173;DHT22;41061;52.822;6.860;2023-03-01T23:50:03;3.00;99.90
55173;DHT22;41061;52.822;6.860;2023-03-01T23:52:37;3.00;99.90
55173;DHT22;41061;52.822;6.860;2023-03-01T23:55:03;3.10;99.90
55173;DHT22;41061;52.822;6.860;2023-03-01T23:57:30;3.00;99.90
55173;DHT22;41061;52.822;6.860;2023-03-01T23:59:56;3.00;99.90
